createdAt,value
2019-02-07T00:02:02.819Z,22.70
2019-02-07T00:04:37.605Z,22.50
2019-02-07T00:07:20.700Z,22.20
2019-02-07T00:09:54.502Z,22.10
2019-02-07T00:12:29.094Z,22.10
2019-02-07T00:15:02.713Z,22.00
2019-02-07T00:17:46.534Z,21.90
2019-02-07T00:20:20.153Z,21.80
2019-02-07T00:23:12.408Z,21.70
2019-02-07T00:25:46.675Z,21.60
2019-02-07T00:28:28.857Z,21.50
2019-02-07T00:31:03.996Z,21.40
2019-02-07T00:33:45.564Z,21.40
2019-02-07T00:37:01.046Z,21.40
2019-02-07T00:39:37.610Z,21.40
2019-02-07T00:42:11.791Z,21.20
2019-02-07T00:44:51.019Z,21.30
2019-02-07T00:47:39.205Z,21.20
2019-02-07T00:50:20.796Z,21.20
2019-02-07T00:52:55.038Z,21.10
2019-02-07T00:55:30.838Z,21.10
2019-02-07T00:58:05.721Z,21.00
2019-02-07T01:00:52.405Z,20.90
2019-02-07T01:03:26.250Z,21.00
2019-02-07T01:06:02.532Z,20.80
2019-02-07T01:08:36.799Z,20.80
2019-02-07T01:11:15.685Z,20.70
2019-02-07T01:13:50.539Z,20.60
2019-02-07T01:16:27.757Z,20.70
2019-02-07T01:19:02.747Z,20.50
2019-02-07T01:21:42.899Z,20.50
2019-02-07T01:24:17.151Z,20.50
2019-02-07T01:26:51.932Z,20.50
2019-02-07T01:29:25.848Z,20.40
2019-02-07T01:32:03.344Z,20.30
2019-02-07T01:34:37.535Z,20.30
2019-02-07T01:37:18.837Z,20.30
2019-02-07T01:39:53.023Z,20.20
2019-02-07T01:42:31.205Z,20.20
2019-02-07T01:45:12.978Z,20.20
2019-02-07T01:47:54.211Z,20.20
2019-02-07T01:50:28.273Z,20.20
2019-02-07T01:53:11.056Z,20.20
2019-02-07T01:55:47.901Z,20.10
2019-02-07T01:58:28.051Z,20.00
2019-02-07T02:01:12.254Z,19.90
2019-02-07T02:03:55.534Z,19.90
2019-02-07T02:06:34.243Z,19.80
2019-02-07T02:09:11.724Z,19.80
2019-02-07T02:11:45.658Z,19.80
2019-02-07T02:30:17.625Z,19.40
2019-02-07T02:37:35.615Z,19.30
2019-02-07T02:40:46.757Z,19.10
2019-02-07T02:43:26.151Z,19.20
2019-02-07T02:47:02.284Z,19.10
2019-02-07T02:50:25.683Z,19.00
2019-02-07T02:54:19.645Z,19.00
2019-02-07T02:57:01.223Z,18.80
2019-02-07T02:59:44.926Z,18.90
2019-02-07T03:02:40.625Z,18.80
2019-02-07T03:05:53.002Z,18.80
2019-02-07T03:08:44.124Z,18.90
2019-02-07T03:11:45.375Z,18.80
2019-02-07T03:14:35.300Z,18.70
2019-02-07T03:17:33.842Z,18.80
2019-02-07T03:20:30.411Z,18.70
2019-02-07T03:23:41.181Z,18.70
2019-02-07T03:26:38.969Z,18.80
2019-02-07T03:29:53.085Z,18.70
2019-02-07T03:32:49.528Z,18.70
2019-02-07T03:35:44.000Z,18.60
2019-02-07T03:38:33.133Z,18.60
2019-02-07T03:41:27.737Z,18.50
2019-02-07T03:44:22.592Z,18.40
2019-02-07T03:47:13.554Z,18.40
2019-02-07T03:50:17.180Z,18.50
2019-02-07T03:53:08.735Z,18.40
2019-02-07T03:56:01.574Z,18.30
2019-02-07T03:59:21.409Z,18.20
2019-02-07T04:02:26.586Z,18.20
2019-02-07T04:05:28.972Z,18.30
2019-02-07T04:08:30.828Z,18.20
2019-02-07T04:11:28.709Z,18.30
2019-02-07T04:14:24.011Z,18.20
2019-02-07T04:17:21.885Z,18.10
2019-02-07T04:20:25.005Z,18.10
2019-02-07T04:23:22.533Z,18.00
2019-02-07T04:26:30.458Z,18.00
2019-02-07T04:29:38.677Z,17.90
2019-02-07T04:32:37.608Z,17.90
2019-02-07T04:35:33.596Z,17.80
2019-02-07T04:38:26.125Z,17.80
2019-02-07T04:41:21.671Z,17.80
2019-02-07T04:44:13.086Z,17.80
2019-02-07T04:47:11.968Z,17.80
2019-02-07T04:50:04.735Z,17.70
2019-02-07T04:52:59.156Z,17.90
2019-02-07T04:55:57.895Z,17.70
2019-02-07T04:58:47.507Z,17.60
2019-02-07T05:01:46.485Z,17.60
2019-02-07T05:04:45.870Z,17.60
2019-02-07T05:07:39.722Z,17.60
2019-02-07T05:10:31.271Z,17.60
2019-02-07T05:13:27.190Z,17.50
2019-02-07T05:16:39.545Z,17.50
2019-02-07T05:19:39.125Z,17.40
2019-02-07T05:22:39.000Z,17.40
2019-02-07T05:25:30.576Z,17.40
2019-02-07T05:28:35.306Z,17.40
2019-02-07T05:31:26.788Z,17.40
2019-02-07T05:34:26.519Z,17.30
2019-02-07T05:37:21.531Z,17.30
2019-02-07T05:40:35.596Z,17.30
2019-02-07T05:43:28.947Z,17.10
2019-02-07T05:46:27.721Z,17.10
2019-02-07T05:49:32.472Z,17.10
2019-02-07T05:52:31.698Z,17.00
2019-02-07T05:55:30.583Z,17.00
2019-02-07T05:58:30.808Z,16.90
2019-02-07T06:01:29.927Z,16.90
2019-02-07T06:04:52.410Z,16.90
2019-02-07T06:07:44.745Z,16.80
2019-02-07T06:10:47.807Z,16.80
2019-02-07T06:13:39.224Z,16.70
2019-02-07T06:16:25.160Z,16.70
2019-02-07T06:19:16.102Z,16.70
2019-02-07T06:22:19.659Z,16.70
2019-02-07T06:25:13.038Z,16.60
2019-02-07T06:28:18.945Z,16.60
2019-02-07T06:31:21.657Z,16.80
2019-02-07T06:34:28.790Z,16.80
2019-02-07T06:37:30.058Z,16.80
2019-02-07T06:40:37.482Z,16.70
2019-02-07T06:43:21.336Z,16.70
2019-02-07T06:46:12.730Z,16.80
2019-02-07T06:49:05.961Z,16.60
2019-02-07T06:52:02.007Z,16.60
2019-02-07T06:54:56.807Z,16.70
2019-02-07T06:58:10.342Z,16.80
2019-02-07T07:00:57.296Z,16.70
2019-02-07T07:04:02.932Z,16.50
2019-02-07T07:07:15.838Z,16.60
2019-02-07T07:10:37.173Z,16.60
2019-02-07T07:13:55.126Z,16.50
2019-02-07T07:17:08.603Z,16.50
2019-02-07T07:20:02.046Z,16.40
2019-02-07T07:23:02.137Z,16.30
2019-02-07T07:25:51.634Z,16.30
2019-02-07T07:28:58.585Z,16.20
2019-02-07T07:32:06.595Z,16.10
2019-02-07T07:35:07.341Z,16.00
2019-02-07T07:38:17.519Z,15.90
2019-02-07T07:41:09.434Z,15.90
2019-02-07T07:43:56.441Z,16.00
2019-02-07T07:47:01.285Z,16.00
2019-02-07T07:49:51.166Z,16.10
2019-02-07T07:52:44.749Z,16.30
2019-02-07T07:55:36.088Z,16.30
2019-02-07T07:58:34.223Z,16.40
2019-02-07T08:01:24.928Z,16.50
2019-02-07T08:04:33.551Z,16.50
2019-02-07T08:07:38.129Z,16.40
2019-02-07T08:10:39.868Z,16.50
2019-02-07T08:13:35.727Z,16.50
2019-02-07T08:16:42.473Z,16.60
2019-02-07T08:19:34.329Z,16.60
2019-02-07T08:22:39.740Z,16.60
2019-02-07T08:25:32.370Z,16.70
2019-02-07T08:28:37.208Z,16.60
2019-02-07T08:31:43.486Z,16.80
2019-02-07T08:34:41.649Z,16.80
2019-02-07T08:37:32.666Z,16.90
2019-02-07T08:40:55.318Z,16.80
2019-02-07T08:43:51.685Z,16.90
2019-02-07T08:47:04.713Z,16.90
2019-02-07T08:49:55.791Z,17.00
2019-02-07T08:52:49.972Z,17.10
2019-02-07T08:55:41.202Z,17.00
2019-02-07T08:59:04.968Z,17.10
2019-02-07T09:02:03.383Z,17.10
2019-02-07T09:05:09.211Z,17.10
2019-02-07T09:08:12.157Z,17.00
2019-02-07T09:11:17.139Z,17.10
2019-02-07T09:14:18.615Z,17.10
2019-02-07T09:17:24.940Z,17.10
2019-02-07T09:20:12.715Z,17.00
2019-02-07T09:23:30.401Z,16.90
2019-02-07T09:26:22.863Z,16.80
2019-02-07T09:29:22.244Z,16.90
2019-02-07T09:32:17.703Z,16.90
2019-02-07T09:35:38.641Z,16.70
2019-02-07T09:38:32.999Z,16.50
2019-02-07T09:41:40.877Z,16.50
2019-02-07T09:44:54.371Z,16.30
2019-02-07T09:48:02.557Z,16.10
2019-02-07T09:50:59.637Z,16.00
2019-02-07T09:53:59.593Z,16.20
2019-02-07T09:57:02.530Z,16.30
2019-02-07T09:59:55.207Z,16.30
2019-02-07T10:03:01.137Z,16.20
2019-02-07T10:05:53.579Z,16.00
2019-02-07T10:08:47.453Z,15.90
2019-02-07T10:11:55.560Z,16.00
2019-02-07T10:14:47.520Z,16.00
2019-02-07T10:18:00.624Z,15.90
2019-02-07T10:21:07.415Z,16.00
2019-02-07T10:24:12.459Z,15.90
2019-02-07T10:27:18.406Z,15.80
2019-02-07T10:30:09.622Z,15.80
2019-02-07T10:33:02.615Z,15.70
2019-02-07T10:36:03.010Z,15.90
2019-02-07T10:38:55.862Z,15.90
2019-02-07T10:41:48.197Z,15.90
2019-02-07T10:44:45.216Z,15.80
2019-02-07T10:47:42.330Z,15.80
2019-02-07T10:50:33.657Z,15.90
2019-02-07T10:53:52.996Z,15.70
2019-02-07T10:56:50.727Z,15.60
2019-02-07T10:59:42.531Z,15.60
2019-02-07T11:02:42.208Z,15.60
2019-02-07T11:05:36.708Z,15.60
2019-02-07T11:08:34.773Z,15.70
2019-02-07T11:11:20.336Z,15.70
2019-02-07T11:14:15.667Z,15.60
2019-02-07T11:17:12.417Z,15.50
2019-02-07T11:20:05.079Z,15.40
2019-02-07T11:22:59.656Z,15.40
2019-02-07T11:26:10.430Z,15.40
2019-02-07T11:29:09.528Z,15.40
2019-02-07T11:31:59.787Z,15.40
2019-02-07T11:34:50.936Z,15.40
2019-02-07T11:37:41.879Z,15.40
2019-02-07T11:40:41.232Z,15.50
2019-02-07T11:43:25.577Z,15.40
2019-02-07T11:46:25.934Z,15.20
2019-02-07T11:49:18.109Z,15.20
2019-02-07T11:55:35.848Z,15.40
2019-02-07T11:58:37.358Z,15.20
2019-02-07T12:01:50.627Z,15.20
2019-02-07T12:04:49.315Z,15.20
2019-02-07T12:07:44.937Z,15.40
2019-02-07T12:10:51.911Z,15.50
2019-02-07T12:13:49.975Z,15.40
2019-02-07T12:16:41.004Z,15.60
2019-02-07T12:19:52.014Z,15.80
2019-02-07T12:22:53.944Z,15.60
2019-02-07T12:26:12.912Z,15.60
2019-02-07T12:29:37.708Z,15.40
2019-02-07T12:32:43.616Z,15.50
2019-02-07T12:35:22.094Z,15.30
2019-02-07T12:38:16.786Z,15.30
2019-02-07T12:41:09.199Z,15.30
2019-02-07T12:44:03.866Z,15.30
2019-02-07T12:47:25.158Z,15.20
2019-02-07T12:50:28.906Z,15.40
2019-02-07T12:53:33.845Z,15.30
2019-02-07T12:56:22.214Z,15.40
2019-02-07T12:59:22.573Z,15.40
2019-02-07T13:02:29.114Z,15.60
2019-02-07T13:05:40.008Z,15.50
2019-02-07T13:08:34.706Z,15.60
2019-02-07T13:11:26.681Z,15.60
2019-02-07T13:14:27.835Z,15.70
2019-02-07T13:17:22.775Z,15.70
2019-02-07T13:20:24.093Z,15.90
2019-02-07T13:23:20.986Z,16.10
2019-02-07T13:26:18.889Z,16.20
2019-02-07T13:29:14.107Z,16.10
2019-02-07T13:32:08.631Z,16.20
2019-02-07T13:35:09.493Z,16.20
2019-02-07T13:38:02.376Z,16.30
2019-02-07T13:41:08.350Z,16.30
2019-02-07T13:44:18.804Z,16.60
2019-02-07T13:47:14.109Z,16.70
2019-02-07T13:50:23.766Z,17.00
2019-02-07T13:53:39.347Z,17.30
2019-02-07T13:56:34.418Z,17.70
2019-02-07T13:59:30.623Z,18.10
2019-02-07T14:02:23.646Z,18.90
2019-02-07T14:05:24.853Z,19.30
2019-02-07T14:08:38.334Z,19.30
2019-02-07T14:11:29.896Z,19.70
2019-02-07T14:14:21.580Z,19.90
2019-02-07T14:17:21.429Z,20.10
2019-02-07T14:20:17.811Z,20.40
2019-02-07T14:23:11.392Z,20.70
2019-02-07T14:26:04.241Z,20.90
2019-02-07T14:29:07.471Z,21.40
2019-02-07T14:32:17.145Z,21.80
2019-02-07T14:35:03.607Z,22.10
2019-02-07T14:38:04.422Z,22.70
2019-02-07T14:41:10.952Z,22.40
2019-02-07T14:43:53.324Z,22.60
2019-02-07T14:46:49.475Z,23.20
2019-02-07T14:49:24.037Z,23.70
2019-02-07T14:52:03.164Z,23.50
2019-02-07T14:54:41.421Z,23.60
2019-02-07T14:57:18.370Z,23.60
2019-02-07T15:00:09.978Z,23.90
2019-02-07T15:03:59.315Z,24.00
2019-02-07T15:06:36.388Z,23.90
2019-02-07T15:09:27.526Z,23.90
2019-02-07T15:12:15.527Z,24.20
2019-02-07T15:14:57.394Z,25.10
2019-02-07T15:17:32.029Z,24.80
2019-02-07T15:20:13.959Z,25.10
2019-02-07T15:22:59.602Z,25.40
2019-02-07T15:25:48.407Z,24.90
2019-02-07T15:28:22.493Z,25.10
2019-02-07T15:31:05.567Z,25.80
2019-02-07T15:33:41.303Z,26.10
2019-02-07T15:36:28.439Z,27.10
2019-02-07T15:39:03.452Z,27.70
2019-02-07T15:41:52.670Z,28.80
2019-02-07T15:44:29.385Z,28.70
2019-02-07T15:47:04.556Z,28.70
2019-02-07T15:49:45.489Z,29.70
2019-02-07T15:52:26.366Z,30.40
2019-02-07T15:55:40.814Z,30.20
2019-02-07T15:58:21.742Z,30.50
2019-02-07T16:01:49.319Z,31.50
2019-02-07T16:05:30.877Z,31.80
2019-02-07T16:08:20.992Z,32.20
2019-02-07T16:11:03.783Z,31.00
2019-02-07T16:14:03.294Z,30.20
2019-02-07T16:16:41.741Z,27.40
2019-02-07T16:19:16.603Z,24.90
2019-02-07T16:26:00.503Z,23.80
2019-02-07T16:32:16.231Z,23.70
2019-02-07T16:35:12.992Z,23.40
2019-02-07T16:37:56.404Z,23.40
2019-02-07T16:41:10.452Z,23.40
2019-02-07T16:47:06.024Z,23.20
2019-02-07T16:49:36.823Z,23.20
2019-02-07T16:52:41.658Z,22.90
2019-02-07T16:55:36.059Z,23.00
2019-02-07T16:58:20.912Z,23.10
2019-02-07T17:01:01.361Z,23.20
2019-02-07T17:03:38.962Z,23.10
2019-02-07T17:06:18.551Z,23.30
2019-02-07T17:11:39.399Z,23.30
2019-02-07T17:14:15.714Z,23.20
2019-02-07T17:16:53.198Z,23.20
2019-02-07T17:19:27.489Z,23.50
2019-02-07T17:22:03.780Z,23.50
2019-02-07T17:25:00.973Z,23.60
2019-02-07T17:27:37.771Z,23.70
2019-02-07T17:30:19.067Z,23.90
2019-02-07T17:32:53.648Z,24.00
2019-02-07T17:35:30.479Z,24.00
2019-02-07T17:38:04.335Z,24.00
2019-02-07T17:40:45.280Z,23.90
2019-02-07T17:43:19.437Z,24.40
2019-02-07T17:45:54.982Z,24.40
2019-02-07T17:48:29.218Z,24.60
2019-02-07T17:51:22.991Z,24.50
2019-02-07T17:53:54.626Z,24.50
2019-02-07T17:56:31.731Z,24.40
2019-02-07T17:59:06.231Z,24.50
2019-02-07T18:01:49.710Z,24.60
2019-02-07T18:04:25.986Z,25.00
2019-02-07T18:07:02.344Z,25.10
2019-02-07T18:09:36.780Z,25.30
2019-02-07T18:12:17.842Z,25.70
2019-02-07T18:14:52.975Z,25.40
2019-02-07T18:17:27.210Z,25.50
2019-02-07T18:20:01.470Z,25.20
2019-02-07T18:22:38.906Z,25.20
2019-02-07T18:25:13.020Z,25.60
2019-02-07T18:27:47.795Z,25.60
2019-02-07T18:30:22.607Z,25.50
2019-02-07T18:32:56.898Z,25.60
2019-02-07T18:35:33.941Z,25.90
2019-02-07T18:38:09.431Z,26.00
2019-02-07T18:40:43.675Z,25.90
2019-02-07T18:43:17.903Z,25.90
2019-02-07T18:46:03.560Z,26.10
2019-02-07T18:48:40.864Z,26.10
2019-02-07T18:51:20.240Z,26.00
2019-02-07T18:54:18.223Z,26.10
2019-02-07T18:56:52.442Z,26.20
2019-02-07T18:59:28.583Z,26.20
2019-02-07T19:02:03.245Z,26.50
2019-02-07T19:04:38.051Z,26.70
2019-02-07T19:07:23.876Z,26.80
2019-02-07T19:10:22.792Z,26.70
2019-02-07T19:13:00.328Z,27.00
2019-02-07T19:15:36.434Z,26.90
2019-02-07T19:18:10.554Z,27.30
2019-02-07T19:20:52.056Z,27.50
2019-02-07T19:23:27.440Z,27.30
2019-02-07T19:26:03.478Z,27.60
2019-02-07T19:28:37.604Z,28.10
2019-02-07T19:31:18.643Z,28.20
2019-02-07T19:33:55.013Z,28.20
2019-02-07T19:36:33.887Z,28.40
2019-02-07T19:39:13.337Z,28.90
2019-02-07T19:41:52.133Z,33.50
2019-02-07T19:44:26.975Z,35.80
2019-02-07T19:47:06.971Z,37.50
2019-02-07T19:49:41.322Z,38.50
2019-02-07T19:52:24.842Z,37.90
2019-02-07T19:55:17.514Z,39.30
2019-02-07T19:58:15.671Z,39.90
2019-02-07T20:00:59.325Z,40.40
2019-02-07T20:03:59.525Z,40.80
2019-02-07T20:06:35.521Z,40.10
2019-02-07T20:09:14.250Z,42.00
2019-02-07T20:11:48.265Z,41.10
2019-02-07T20:14:22.693Z,41.40
2019-02-07T20:16:56.761Z,41.60
2019-02-07T20:19:36.969Z,42.20
2019-02-07T20:22:20.271Z,41.50
2019-02-07T20:24:57.118Z,41.50
2019-02-07T20:27:31.746Z,42.30
2019-02-07T20:30:25.618Z,40.70
2019-02-07T20:33:00.385Z,41.50
2019-02-07T20:35:38.655Z,42.20
2019-02-07T20:38:16.245Z,41.60
2019-02-07T20:41:01.125Z,40.20
2019-02-07T20:47:05.877Z,41.40
2019-02-07T20:49:41.265Z,41.50
2019-02-07T20:52:27.239Z,40.20
2019-02-07T20:54:58.843Z,39.90
2019-02-07T20:57:37.292Z,40.20
2019-02-07T21:00:19.819Z,39.80
2019-02-07T21:02:53.933Z,36.80
2019-02-07T21:05:28.019Z,38.90
2019-02-07T21:08:05.603Z,38.10
2019-02-07T21:10:42.294Z,37.00
2019-02-07T21:13:16.509Z,34.90
2019-02-07T21:15:50.891Z,34.10
2019-02-07T21:18:32.158Z,32.30
2019-02-07T21:21:06.149Z,31.50
2019-02-07T21:23:43.805Z,33.00
2019-02-07T21:26:17.864Z,32.50
2019-02-07T21:29:00.227Z,32.20
2019-02-07T21:31:41.691Z,32.00
2019-02-07T21:34:25.686Z,31.30
2019-02-07T21:37:00.546Z,30.90
2019-02-07T21:39:38.084Z,30.60
2019-02-07T21:56:14.911Z,26.40
2019-02-07T21:59:12.698Z,28.50
